sensor_id;sensor_type;location;lat;lon;timestamp;P1;durP1;ratioP1;P2;durP2;ratioP2
14849;SDS011;7517;48.400;11.770;2023-02-01T00:01:17;2.00;;;1.80;;
14849;SDS011;7517;48.400;11.770;2023-02-01T00:03:44;1.50;;;1.40;;
14849;SDS011;7517;48.400;11.770;2023-02-01T00:06:12;2.13;;;1.90;;
14849;SDS011;7517;48.400;11.770;2023-02-01T00:08:39;2.10;;;1.90;;
14849;SDS011;7517;48.400;11.770;2023-02-01T00:11:08;2.90;;;1.77;;
14849;SDS011;7517;48.400;11.770;2023-02-01T00:13:40;2.83;;;1.97;;
14849;SDS011;7517;48.400;11.770;2023-02-01T00:16:13;2.33;;;2.13;;
14849;SDS011;7517;48.400;11.770;2023-02-01T00:18:45;2.80;;;1.80;;
14849;SDS011;7517;48.400;11.770;2023-02-01T00:21:15;2.07;;;1.80;;
14849;SDS011;7517;48.400;11.770;2023-02-01T00:23:46;2.27;;;1.73;;
14849;SDS011;7517;48.400;11.770;2023-02-01T00:26:14;2.30;;;2.03;;
14849;SDS011;7517;48.400;11.770;2023-02-01T00:28:43;2.80;;;2.13;;
14849;SDS011;7517;48.400;11.770;2023-02-01T00:31:11;3.13;;;2.10;;
14849;SDS011;7517;48.400;11.770;2023-02-01T00:33:42;2.50;;;2.23;;
14849;SDS011;7517;48.400;11.770;2023-02-01T00:36:13;2.33;;;2.13;;
14849;SDS011;7517;48.400;11.770;2023-02-01T00:38:41;2.00;;;1.80;;
14849;SDS011;7517;48.400;11.770;2023-02-01T00:41:10;2.50;;;2.00;;
14849;SDS011;7517;48.400;11.770;2023-02-01T00:43:40;2.37;;;1.70;;
14849;SDS011;7517;48.400;11.770;2023-02-01T00:46:09;2.47;;;2.07;;
14849;SDS011;7517;48.400;11.770;2023-02-01T00:48:43;2.87;;;2.00;;
14849;SDS011;7517;48.400;11.770;2023-02-01T00:51:13;2.60;;;2.00;;
14849;SDS011;7517;48.400;11.770;2023-02-01T00:53:43;2.37;;;2.10;;
14849;SDS011;7517;48.400;11.770;2023-02-01T00:56:11;2.03;;;1.83;;
14849;SDS011;7517;48.400;11.770;2023-02-01T00:58:39;3.00;;;2.13;;
14849;SDS011;7517;48.400;11.770;2023-02-01T01:01:10;2.20;;;2.00;;
14849;SDS011;7517;48.400;11.770;2023-02-01T01:03:47;3.00;;;2.10;;
14849;SDS011;7517;48.400;11.770;2023-02-01T01:06:19;2.10;;;1.90;;
14849;SDS011;7517;48.400;11.770;2023-02-01T01:08:50;2.03;;;1.80;;
14849;SDS011;7517;48.400;11.770;2023-02-01T01:11:20;2.00;;;1.90;;
14849;SDS011;7517;48.400;11.770;2023-02-01T01:13:50;2.30;;;2.10;;
14849;SDS011;7517;48.400;11.770;2023-02-01T01:16:20;1.97;;;1.80;;
14849;SDS011;7517;48.400;11.770;2023-02-01T01:18:54;2.00;;;1.90;;
14849;SDS011;7517;48.400;11.770;2023-02-01T01:21:22;4.17;;;2.17;;
14849;SDS011;7517;48.400;11.770;2023-02-01T01:23:50;2.20;;;2.00;;
14849;SDS011;7517;48.400;11.770;2023-02-01T01:26:20;2.80;;;1.93;;
14849;SDS011;7517;48.400;11.770;2023-02-01T01:28:50;3.00;;;2.03;;
14849;SDS011;7517;48.400;11.770;2023-02-01T01:31:20;3.07;;;2.30;;
14849;SDS011;7517;48.400;11.770;2023-02-01T01:33:51;2.30;;;1.80;;
14849;SDS011;7517;48.400;11.770;2023-02-01T01:36:23;2.33;;;2.00;;
14849;SDS011;7517;48.400;11.770;2023-02-01T01:38:52;4.27;;;2.00;;
14849;SDS011;7517;48.400;11.770;2023-02-01T01:43:50;3.43;;;2.03;;
14849;SDS011;7517;48.400;11.770;2023-02-01T01:46:23;2.60;;;2.40;;
14849;SDS011;7517;48.400;11.770;2023-02-01T01:48:58;3.03;;;2.50;;
14849;SDS011;7517;48.400;11.770;2023-02-01T01:51:35;2.23;;;2.03;;
14849;SDS011;7517;48.400;11.770;2023-02-01T01:54:11;2.40;;;2.17;;
14849;SDS011;7517;48.400;11.770;2023-02-01T01:56:48;2.20;;;2.00;;
14849;SDS011;7517;48.400;11.770;2023-02-01T01:59:20;2.77;;;2.10;;
14849;SDS011;7517;48.400;11.770;2023-02-01T02:01:51;2.40;;;2.20;;
14849;SDS011;7517;48.400;11.770;2023-02-01T02:04:24;2.77;;;2.20;;
14849;SDS011;7517;48.400;11.770;2023-02-01T02:06:59;2.90;;;2.50;;
14849;SDS011;7517;48.400;11.770;2023-02-01T02:09:30;5.53;;;2.60;;
14849;SDS011;7517;48.400;11.770;2023-02-01T02:11:57;2.67;;;2.43;;
14849;SDS011;7517;48.400;11.770;2023-02-01T02:14:25;2.80;;;2.60;;
14849;SDS011;7517;48.400;11.770;2023-02-01T02:16:59;3.10;;;2.90;;
14849;SDS011;7517;48.400;11.770;2023-02-01T02:23:25;2.60;;;2.40;;
14849;SDS011;7517;48.400;11.770;2023-02-01T02:33:23;4.80;;;2.67;;
14849;SDS011;7517;48.400;11.770;2023-02-01T02:36:15;2.77;;;2.57;;
14849;SDS011;7517;48.400;11.770;2023-02-01T02:38:57;2.80;;;2.50;;
14849;SDS011;7517;48.400;11.770;2023-02-01T02:41:35;12.87;;;3.43;;
14849;SDS011;7517;48.400;11.770;2023-02-01T02:44:34;3.17;;;2.87;;
14849;SDS011;7517;48.400;11.770;2023-02-01T02:47:31;3.83;;;2.60;;
14849;SDS011;7517;48.400;11.770;2023-02-01T02:50:11;4.50;;;2.80;;
14849;SDS011;7517;48.400;11.770;2023-02-01T02:53:06;3.30;;;2.83;;
14849;SDS011;7517;48.400;11.770;2023-02-01T02:55:58;3.00;;;2.80;;
14849;SDS011;7517;48.400;11.770;2023-02-01T02:58:46;2.80;;;2.60;;
14849;SDS011;7517;48.400;11.770;2023-02-01T03:01:36;2.63;;;2.40;;
14849;SDS011;7517;48.400;11.770;2023-02-01T03:04:23;3.77;;;3.00;;
14849;SDS011;7517;48.400;11.770;2023-02-01T03:06:53;3.37;;;2.83;;
14849;SDS011;7517;48.400;11.770;2023-02-01T03:09:23;3.73;;;2.47;;
14849;SDS011;7517;48.400;11.770;2023-02-01T03:11:58;3.10;;;2.80;;
14849;SDS011;7517;48.400;11.770;2023-02-01T03:14:53;3.63;;;2.70;;
14849;SDS011;7517;48.400;11.770;2023-02-01T03:17:27;2.60;;;2.27;;
14849;SDS011;7517;48.400;11.770;2023-02-01T03:20:02;3.13;;;2.27;;
14849;SDS011;7517;48.400;11.770;2023-02-01T03:22:34;3.73;;;2.60;;
14849;SDS011;7517;48.400;11.770;2023-02-01T03:25:05;3.60;;;2.50;;
14849;SDS011;7517;48.400;11.770;2023-02-01T03:27:37;3.03;;;2.20;;
14849;SDS011;7517;48.400;11.770;2023-02-01T03:30:15;3.60;;;2.83;;
14849;SDS011;7517;48.400;11.770;2023-02-01T03:32:48;2.90;;;2.50;;
14849;SDS011;7517;48.400;11.770;2023-02-01T03:35:27;2.70;;;2.50;;
14849;SDS011;7517;48.400;11.770;2023-02-01T03:38:03;2.77;;;2.57;;
14849;SDS011;7517;48.400;11.770;2023-02-01T03:40:44;2.80;;;2.60;;
14849;SDS011;7517;48.400;11.770;2023-02-01T03:43:20;3.47;;;3.00;;
14849;SDS011;7517;48.400;11.770;2023-02-01T03:45:52;3.47;;;2.70;;
14849;SDS011;7517;48.400;11.770;2023-02-01T03:48:26;3.00;;;2.33;;
14849;SDS011;7517;48.400;11.770;2023-02-01T03:50:56;2.67;;;2.47;;
14849;SDS011;7517;48.400;11.770;2023-02-01T03:53:29;2.40;;;2.20;;
14849;SDS011;7517;48.400;11.770;2023-02-01T03:55:59;2.63;;;2.27;;
14849;SDS011;7517;48.400;11.770;2023-02-01T03:58:28;5.23;;;2.53;;
14849;SDS011;7517;48.400;11.770;2023-02-01T04:00:59;2.70;;;2.50;;
14849;SDS011;7517;48.400;11.770;2023-02-01T04:03:27;2.63;;;2.40;;
14849;SDS011;7517;48.400;11.770;2023-02-01T04:05:59;2.80;;;2.47;;
14849;SDS011;7517;48.400;11.770;2023-02-01T04:08:26;2.13;;;1.97;;
14849;SDS011;7517;48.400;11.770;2023-02-01T04:10:55;2.27;;;2.10;;
14849;SDS011;7517;48.400;11.770;2023-02-01T04:13:23;3.00;;;2.20;;
14849;SDS011;7517;48.400;11.770;2023-02-01T04:15:52;5.90;;;2.30;;
14849;SDS011;7517;48.400;11.770;2023-02-01T04:18:20;2.10;;;2.00;;
14849;SDS011;7517;48.400;11.770;2023-02-01T04:20:48;2.90;;;2.23;;
14849;SDS011;7517;48.400;11.770;2023-02-01T04:23:16;2.50;;;2.30;;
14849;SDS011;7517;48.400;11.770;2023-02-01T04:25:44;2.53;;;2.30;;
14849;SDS011;7517;48.400;11.770;2023-02-01T04:28:13;2.77;;;2.20;;
14849;SDS011;7517;48.400;11.770;2023-02-01T04:30:40;2.33;;;2.10;;
14849;SDS011;7517;48.400;11.770;2023-02-01T04:33:08;2.30;;;2.10;;
14849;SDS011;7517;48.400;11.770;2023-02-01T04:35:38;4.47;;;2.50;;
14849;SDS011;7517;48.400;11.770;2023-02-01T04:38:06;2.30;;;2.10;;
14849;SDS011;7517;48.400;11.770;2023-02-01T04:40:33;2.57;;;1.70;;
14849;SDS011;7517;48.400;11.770;2023-02-01T04:43:02;2.40;;;2.20;;
14849;SDS011;7517;48.400;11.770;2023-02-01T04:45:31;3.00;;;2.27;;
14849;SDS011;7517;48.400;11.770;2023-02-01T04:48:00;2.60;;;1.90;;
14849;SDS011;7517;48.400;11.770;2023-02-01T04:50:28;2.40;;;2.20;;
14849;SDS011;7517;48.400;11.770;2023-02-01T04:52:56;1.87;;;1.77;;
14849;SDS011;7517;48.400;11.770;2023-02-01T04:55:23;2.23;;;2.00;;
14849;SDS011;7517;48.400;11.770;2023-02-01T04:57:53;1.97;;;1.80;;
14849;SDS011;7517;48.400;11.770;2023-02-01T05:00:21;2.43;;;2.10;;
14849;SDS011;7517;48.400;11.770;2023-02-01T05:02:51;3.60;;;1.83;;
14849;SDS011;7517;48.400;11.770;2023-02-01T05:05:18;2.93;;;2.30;;
14849;SDS011;7517;48.400;11.770;2023-02-01T05:07:45;1.97;;;1.83;;
14849;SDS011;7517;48.400;11.770;2023-02-01T05:10:13;1.83;;;1.67;;
14849;SDS011;7517;48.400;11.770;2023-02-01T05:12:40;2.03;;;1.83;;
14849;SDS011;7517;48.400;11.770;2023-02-01T05:15:27;1.60;;;1.50;;
14849;SDS011;7517;48.400;11.770;2023-02-01T05:17:56;1.57;;;1.47;;
14849;SDS011;7517;48.400;11.770;2023-02-01T05:20:23;2.47;;;1.77;;
14849;SDS011;7517;48.400;11.770;2023-02-01T05:22:51;2.47;;;1.80;;
14849;SDS011;7517;48.400;11.770;2023-02-01T05:25:21;2.10;;;1.90;;
14849;SDS011;7517;48.400;11.770;2023-02-01T05:27:48;1.67;;;1.57;;
14849;SDS011;7517;48.400;11.770;2023-02-01T05:30:16;3.93;;;1.90;;
14849;SDS011;7517;48.400;11.770;2023-02-01T05:32:43;2.23;;;1.63;;
14849;SDS011;7517;48.400;11.770;2023-02-01T05:35:12;3.13;;;2.10;;
14849;SDS011;7517;48.400;11.770;2023-02-01T05:37:41;2.97;;;1.93;;
14849;SDS011;7517;48.400;11.770;2023-02-01T05:40:09;1.77;;;1.67;;
14849;SDS011;7517;48.400;11.770;2023-02-01T05:42:37;2.50;;;1.93;;
14849;SDS011;7517;48.400;11.770;2023-02-01T05:45:05;1.47;;;1.37;;
14849;SDS011;7517;48.400;11.770;2023-02-01T05:47:34;2.10;;;1.73;;
14849;SDS011;7517;48.400;11.770;2023-02-01T05:50:01;1.77;;;1.57;;
14849;SDS011;7517;48.400;11.770;2023-02-01T05:52:31;2.03;;;1.93;;
14849;SDS011;7517;48.400;11.770;2023-02-01T05:54:59;4.40;;;1.87;;
14849;SDS011;7517;48.400;11.770;2023-02-01T05:57:26;1.93;;;1.83;;
14849;SDS011;7517;48.400;11.770;2023-02-01T05:59:56;2.30;;;1.80;;
14849;SDS011;7517;48.400;11.770;2023-02-01T06:02:25;2.63;;;1.87;;
14849;SDS011;7517;48.400;11.770;2023-02-01T06:04:53;3.80;;;1.97;;
14849;SDS011;7517;48.400;11.770;2023-02-01T06:07:20;2.10;;;1.90;;
14849;SDS011;7517;48.400;11.770;2023-02-01T06:09:50;1.93;;;1.83;;
14849;SDS011;7517;48.400;11.770;2023-02-01T06:12:17;3.00;;;2.37;;
14849;SDS011;7517;48.400;11.770;2023-02-01T06:14:44;2.10;;;1.90;;
14849;SDS011;7517;48.400;11.770;2023-02-01T06:17:11;2.43;;;2.23;;
14849;SDS011;7517;48.400;11.770;2023-02-01T06:19:39;2.30;;;1.93;;
14849;SDS011;7517;48.400;11.770;2023-02-01T06:22:06;2.10;;;1.57;;
14849;SDS011;7517;48.400;11.770;2023-02-01T06:24:33;2.13;;;1.97;;
14849;SDS011;7517;48.400;11.770;2023-02-01T06:27:02;2.27;;;2.07;;
14849;SDS011;7517;48.400;11.770;2023-02-01T06:29:30;5.63;;;2.40;;
14849;SDS011;7517;48.400;11.770;2023-02-01T06:31:57;1.90;;;1.80;;
14849;SDS011;7517;48.400;11.770;2023-02-01T06:34:24;1.80;;;1.70;;
14849;SDS011;7517;48.400;11.770;2023-02-01T06:36:52;2.20;;;1.97;;
14849;SDS011;7517;48.400;11.770;2023-02-01T06:39:20;1.97;;;1.73;;
14849;SDS011;7517;48.400;11.770;2023-02-01T06:41:47;2.13;;;1.73;;
14849;SDS011;7517;48.400;11.770;2023-02-01T06:44:18;2.10;;;1.90;;
14849;SDS011;7517;48.400;11.770;2023-02-01T06:46:45;3.80;;;1.93;;
14849;SDS011;7517;48.400;11.770;2023-02-01T06:49:13;2.80;;;2.10;;
14849;SDS011;7517;48.400;11.770;2023-02-01T06:51:40;1.90;;;1.80;;
14849;SDS011;7517;48.400;11.770;2023-02-01T06:54:09;2.17;;;1.90;;
14849;SDS011;7517;48.400;11.770;2023-02-01T06:56:36;3.60;;;2.10;;
14849;SDS011;7517;48.400;11.770;2023-02-01T06:59:03;1.70;;;1.60;;
14849;SDS011;7517;48.400;11.770;2023-02-01T07:01:33;2.10;;;1.90;;
14849;SDS011;7517;48.400;11.770;2023-02-01T07:04:01;2.47;;;1.67;;
14849;SDS011;7517;48.400;11.770;2023-02-01T07:06:28;2.20;;;1.70;;
14849;SDS011;7517;48.400;11.770;2023-02-01T07:08:56;3.50;;;1.83;;
14849;SDS011;7517;48.400;11.770;2023-02-01T07:11:25;2.93;;;1.60;;
14849;SDS011;7517;48.400;11.770;2023-02-01T07:13:53;2.00;;;1.80;;
14849;SDS011;7517;48.400;11.770;2023-02-01T07:16:21;2.10;;;1.90;;
14849;SDS011;7517;48.400;11.770;2023-02-01T07:18:51;1.70;;;1.53;;
14849;SDS011;7517;48.400;11.770;2023-02-01T07:21:19;2.03;;;1.83;;
14849;SDS011;7517;48.400;11.770;2023-02-01T07:23:48;1.83;;;1.73;;
14849;SDS011;7517;48.400;11.770;2023-02-01T07:26:15;2.10;;;1.90;;
14849;SDS011;7517;48.400;11.770;2023-02-01T07:28:42;2.00;;;1.80;;
14849;SDS011;7517;48.400;11.770;2023-02-01T07:31:12;2.53;;;1.67;;
14849;SDS011;7517;48.400;11.770;2023-02-01T07:33:43;1.60;;;1.50;;
14849;SDS011;7517;48.400;11.770;2023-02-01T07:36:13;1.97;;;1.80;;
14849;SDS011;7517;48.400;11.770;2023-02-01T07:38:42;2.17;;;1.93;;
14849;SDS011;7517;48.400;11.770;2023-02-01T07:41:11;2.43;;;1.80;;
14849;SDS011;7517;48.400;11.770;2023-02-01T07:43:39;1.60;;;1.50;;
14849;SDS011;7517;48.400;11.770;2023-02-01T07:46:06;2.80;;;2.03;;
14849;SDS011;7517;48.400;11.770;2023-02-01T07:48:35;2.33;;;2.03;;
14849;SDS011;7517;48.400;11.770;2023-02-01T07:51:04;2.27;;;2.07;;
14849;SDS011;7517;48.400;11.770;2023-02-01T07:53:36;2.17;;;1.80;;
14849;SDS011;7517;48.400;11.770;2023-02-01T07:56:08;3.20;;;1.93;;
14849;SDS011;7517;48.400;11.770;2023-02-01T07:58:38;2.90;;;2.00;;
14849;SDS011;7517;48.400;11.770;2023-02-01T08:01:11;2.40;;;2.20;;
14849;SDS011;7517;48.400;11.770;2023-02-01T08:03:49;2.73;;;2.07;;
14849;SDS011;7517;48.400;11.770;2023-02-01T08:06:19;2.07;;;1.87;;
14849;SDS011;7517;48.400;11.770;2023-02-01T08:08:49;1.83;;;1.70;;
14849;SDS011;7517;48.400;11.770;2023-02-01T08:11:18;1.93;;;1.83;;
14849;SDS011;7517;48.400;11.770;2023-02-01T08:13:48;2.67;;;1.80;;
14849;SDS011;7517;48.400;11.770;2023-02-01T08:16:16;2.83;;;1.80;;
14849;SDS011;7517;48.400;11.770;2023-02-01T08:18:46;2.10;;;1.70;;
14849;SDS011;7517;48.400;11.770;2023-02-01T08:21:14;1.93;;;1.77;;
14849;SDS011;7517;48.400;11.770;2023-02-01T08:23:44;1.93;;;1.80;;
14849;SDS011;7517;48.400;11.770;2023-02-01T08:26:16;1.83;;;1.70;;
14849;SDS011;7517;48.400;11.770;2023-02-01T08:28:48;2.10;;;1.90;;
14849;SDS011;7517;48.400;11.770;2023-02-01T08:31:19;1.80;;;1.70;;
14849;SDS011;7517;48.400;11.770;2023-02-01T08:33:49;1.97;;;1.77;;
14849;SDS011;7517;48.400;11.770;2023-02-01T08:36:19;2.23;;;2.00;;
14849;SDS011;7517;48.400;11.770;2023-02-01T08:38:48;1.90;;;1.80;;
14849;SDS011;7517;48.400;11.770;2023-02-01T08:41:18;3.03;;;1.70;;
14849;SDS011;7517;48.400;11.770;2023-02-01T08:43:48;1.63;;;1.53;;
14849;SDS011;7517;48.400;11.770;2023-02-01T08:46:16;1.63;;;1.50;;
14849;SDS011;7517;48.400;11.770;2023-02-01T08:48:44;1.60;;;1.40;;
14849;SDS011;7517;48.400;11.770;2023-02-01T08:51:13;1.70;;;1.60;;
14849;SDS011;7517;48.400;11.770;2023-02-01T08:53:44;1.90;;;1.70;;
14849;SDS011;7517;48.400;11.770;2023-02-01T08:56:12;2.00;;;1.90;;
14849;SDS011;7517;48.400;11.770;2023-02-01T08:58:44;2.27;;;1.67;;
14849;SDS011;7517;48.400;11.770;2023-02-01T09:01:11;2.17;;;1.90;;
14849;SDS011;7517;48.400;11.770;2023-02-01T09:03:41;2.30;;;1.97;;
14849;SDS011;7517;48.400;11.770;2023-02-01T09:06:09;2.53;;;2.33;;
14849;SDS011;7517;48.400;11.770;2023-02-01T09:08:39;1.80;;;1.70;;
14849;SDS011;7517;48.400;11.770;2023-02-01T09:11:08;1.60;;;1.50;;
14849;SDS011;7517;48.400;11.770;2023-02-01T09:13:40;1.60;;;1.27;;
14849;SDS011;7517;48.400;11.770;2023-02-01T09:16:09;1.47;;;1.37;;
14849;SDS011;7517;48.400;11.770;2023-02-01T09:18:37;1.40;;;1.30;;
14849;SDS011;7517;48.400;11.770;2023-02-01T09:21:10;1.80;;;1.70;;
14849;SDS011;7517;48.400;11.770;2023-02-01T09:23:37;1.63;;;1.53;;
14849;SDS011;7517;48.400;11.770;2023-02-01T09:26:04;1.70;;;1.33;;
14849;SDS011;7517;48.400;11.770;2023-02-01T09:28:32;1.67;;;1.57;;
14849;SDS011;7517;48.400;11.770;2023-02-01T09:31:00;1.60;;;1.50;;
14849;SDS011;7517;48.400;11.770;2023-02-01T09:33:30;1.40;;;1.30;;
14849;SDS011;7517;48.400;11.770;2023-02-01T09:35:57;1.87;;;1.60;;
14849;SDS011;7517;48.400;11.770;2023-02-01T09:38:26;2.03;;;1.87;;
14849;SDS011;7517;48.400;11.770;2023-02-01T09:40:54;1.67;;;1.57;;
14849;SDS011;7517;48.400;11.770;2023-02-01T09:43:25;1.73;;;1.53;;
14849;SDS011;7517;48.400;11.770;2023-02-01T09:46:12;1.37;;;1.27;;
14849;SDS011;7517;48.400;11.770;2023-02-01T09:48:52;8.07;;;1.60;;
14849;SDS011;7517;48.400;11.770;2023-02-01T09:51:23;1.80;;;1.40;;
14849;SDS011;7517;48.400;11.770;2023-02-01T09:53:59;1.40;;;1.20;;
14849;SDS011;7517;48.400;11.770;2023-02-01T09:56:34;1.50;;;1.40;;
14849;SDS011;7517;48.400;11.770;2023-02-01T09:59:09;2.57;;;2.37;;
14849;SDS011;7517;48.400;11.770;2023-02-01T10:01:51;1.83;;;1.63;;
14849;SDS011;7517;48.400;11.770;2023-02-01T10:04:21;1.67;;;1.50;;
14849;SDS011;7517;48.400;11.770;2023-02-01T10:06:51;1.40;;;1.30;;
14849;SDS011;7517;48.400;11.770;2023-02-01T10:09:49;2.27;;;1.53;;
14849;SDS011;7517;48.400;11.770;2023-02-01T10:12:30;1.23;;;1.10;;
14849;SDS011;7517;48.400;11.770;2023-02-01T10:15:30;1.27;;;1.17;;
14849;SDS011;7517;48.400;11.770;2023-02-01T10:18:15;1.20;;;1.07;;
14849;SDS011;7517;48.400;11.770;2023-02-01T10:21:04;1.70;;;1.60;;
14849;SDS011;7517;48.400;11.770;2023-02-01T10:23:48;1.40;;;1.20;;
14849;SDS011;7517;48.400;11.770;2023-02-01T10:26:50;1.63;;;1.43;;
14849;SDS011;7517;48.400;11.770;2023-02-01T10:29:25;1.60;;;1.30;;
14849;SDS011;7517;48.400;11.770;2023-02-01T10:32:01;1.40;;;1.30;;
14849;SDS011;7517;48.400;11.770;2023-02-01T10:34:30;1.40;;;1.30;;
14849;SDS011;7517;48.400;11.770;2023-02-01T10:37:09;1.03;;;1.03;;
14849;SDS011;7517;48.400;11.770;2023-02-01T10:39:49;3.17;;;1.17;;
14849;SDS011;7517;48.400;11.770;2023-02-01T10:42:22;1.70;;;1.17;;
14849;SDS011;7517;48.400;11.770;2023-02-01T10:44:53;1.93;;;1.60;;
14849;SDS011;7517;48.400;11.770;2023-02-01T10:47:24;1.63;;;1.10;;
14849;SDS011;7517;48.400;11.770;2023-02-01T10:49:54;1.57;;;1.03;;
14849;SDS011;7517;48.400;11.770;2023-02-01T10:52:36;1.03;;;0.93;;
14849;SDS011;7517;48.400;11.770;2023-02-01T10:55:26;2.27;;;1.27;;
14849;SDS011;7517;48.400;11.770;2023-02-01T10:57:59;1.33;;;1.23;;
14849;SDS011;7517;48.400;11.770;2023-02-01T11:00:28;2.20;;;1.43;;
14849;SDS011;7517;48.400;11.770;2023-02-01T11:03:22;1.60;;;1.30;;
14849;SDS011;7517;48.400;11.770;2023-02-01T11:06:11;1.20;;;1.10;;
14849;SDS011;7517;48.400;11.770;2023-02-01T11:08:49;1.97;;;1.50;;
14849;SDS011;7517;48.400;11.770;2023-02-01T11:11:20;1.33;;;1.10;;
14849;SDS011;7517;48.400;11.770;2023-02-01T11:13:55;1.77;;;1.10;;
14849;SDS011;7517;48.400;11.770;2023-02-01T11:16:29;1.23;;;1.13;;
14849;SDS011;7517;48.400;11.770;2023-02-01T11:19:02;0.97;;;0.97;;
14849;SDS011;7517;48.400;11.770;2023-02-01T11:21:30;1.00;;;0.90;;
14849;SDS011;7517;48.400;11.770;2023-02-01T11:24:02;1.00;;;0.80;;
14849;SDS011;7517;48.400;11.770;2023-02-01T11:26:44;0.93;;;0.80;;
14849;SDS011;7517;48.400;11.770;2023-02-01T11:29:18;2.53;;;1.07;;
14849;SDS011;7517;48.400;11.770;2023-02-01T11:31:53;1.03;;;0.97;;
14849;SDS011;7517;48.400;11.770;2023-02-01T11:34:25;2.00;;;1.00;;
14849;SDS011;7517;48.400;11.770;2023-02-01T11:37:00;2.17;;;1.17;;
14849;SDS011;7517;48.400;11.770;2023-02-01T11:39:33;1.40;;;1.30;;
14849;SDS011;7517;48.400;11.770;2023-02-01T11:42:02;1.30;;;1.20;;
14849;SDS011;7517;48.400;11.770;2023-02-01T11:44:33;1.23;;;0.90;;
14849;SDS011;7517;48.400;11.770;2023-02-01T11:47:18;2.23;;;1.10;;
14849;SDS011;7517;48.400;11.770;2023-02-01T11:49:49;2.70;;;1.10;;
14849;SDS011;7517;48.400;11.770;2023-02-01T11:52:21;1.90;;;1.10;;
14849;SDS011;7517;48.400;11.770;2023-02-01T11:55:29;1.53;;;1.00;;
14849;SDS011;7517;48.400;11.770;2023-02-01T11:58:19;1.70;;;1.10;;
14849;SDS011;7517;48.400;11.770;2023-02-01T12:01:14;1.67;;;1.00;;
14849;SDS011;7517;48.400;11.770;2023-02-01T12:04:18;1.40;;;1.30;;
14849;SDS011;7517;48.400;11.770;2023-02-01T12:07:36;1.50;;;1.23;;
14849;SDS011;7517;48.400;11.770;2023-02-01T12:10:28;1.80;;;1.70;;
14849;SDS011;7517;48.400;11.770;2023-02-01T12:13:13;2.73;;;1.83;;
14849;SDS011;7517;48.400;11.770;2023-02-01T12:16:00;1.40;;;1.30;;
14849;SDS011;7517;48.400;11.770;2023-02-01T12:18:44;2.20;;;1.43;;
14849;SDS011;7517;48.400;11.770;2023-02-01T12:21:43;7.60;;;2.23;;
14849;SDS011;7517;48.400;11.770;2023-02-01T12:31:12;1.97;;;1.60;;
14849;SDS011;7517;48.400;11.770;2023-02-01T12:37:05;2.50;;;1.40;;
14849;SDS011;7517;48.400;11.770;2023-02-01T12:39:49;1.60;;;1.23;;
14849;SDS011;7517;48.400;11.770;2023-02-01T12:42:31;5.40;;;1.90;;
14849;SDS011;7517;48.400;11.770;2023-02-01T12:45:10;3.60;;;1.27;;
14849;SDS011;7517;48.400;11.770;2023-02-01T12:47:44;2.63;;;1.47;;
14849;SDS011;7517;48.400;11.770;2023-02-01T12:50:18;1.27;;;1.00;;
14849;SDS011;7517;48.400;11.770;2023-02-01T12:52:52;2.33;;;1.40;;
14849;SDS011;7517;48.400;11.770;2023-02-01T12:55:32;2.60;;;1.50;;
14849;SDS011;7517;48.400;11.770;2023-02-01T12:58:08;1.33;;;1.10;;
14849;SDS011;7517;48.400;11.770;2023-02-01T13:00:49;3.80;;;1.63;;
14849;SDS011;7517;48.400;11.770;2023-02-01T13:03:28;2.33;;;1.70;;
14849;SDS011;7517;48.400;11.770;2023-02-01T13:06:05;2.17;;;1.40;;
14849;SDS011;7517;48.400;11.770;2023-02-01T13:08:41;2.20;;;1.50;;
14849;SDS011;7517;48.400;11.770;2023-02-01T13:11:15;3.17;;;1.47;;
14849;SDS011;7517;48.400;11.770;2023-02-01T13:13:56;2.30;;;1.47;;
14849;SDS011;7517;48.400;11.770;2023-02-01T13:16:33;2.43;;;1.47;;
14849;SDS011;7517;48.400;11.770;2023-02-01T13:19:09;2.30;;;1.70;;
14849;SDS011;7517;48.400;11.770;2023-02-01T13:21:45;3.30;;;1.50;;
14849;SDS011;7517;48.400;11.770;2023-02-01T13:24:24;2.10;;;1.60;;
14849;SDS011;7517;48.400;11.770;2023-02-01T13:27:01;2.60;;;1.40;;
14849;SDS011;7517;48.400;11.770;2023-02-01T13:29:28;2.80;;;1.57;;
14849;SDS011;7517;48.400;11.770;2023-02-01T13:32:08;2.10;;;1.60;;
14849;SDS011;7517;48.400;11.770;2023-02-01T13:35:13;3.30;;;1.77;;
14849;SDS011;7517;48.400;11.770;2023-02-01T13:41:51;2.50;;;1.60;;
14849;SDS011;7517;48.400;11.770;2023-02-01T13:44:25;2.20;;;1.40;;
14849;SDS011;7517;48.400;11.770;2023-02-01T13:46:58;2.47;;;1.50;;
14849;SDS011;7517;48.400;11.770;2023-02-01T13:49:31;2.47;;;1.50;;
14849;SDS011;7517;48.400;11.770;2023-02-01T13:52:06;1.70;;;1.50;;
14849;SDS011;7517;48.400;11.770;2023-02-01T13:55:00;2.10;;;1.30;;
14849;SDS011;7517;48.400;11.770;2023-02-01T13:57:43;2.60;;;1.27;;
14849;SDS011;7517;48.400;11.770;2023-02-01T14:00:25;5.97;;;1.30;;
14849;SDS011;7517;48.400;11.770;2023-02-01T14:06:02;2.37;;;1.30;;
14849;SDS011;7517;48.400;11.770;2023-02-01T14:08:45;2.13;;;1.00;;
14849;SDS011;7517;48.400;11.770;2023-02-01T14:11:39;2.47;;;1.20;;
14849;SDS011;7517;48.400;11.770;2023-02-01T14:23:23;2.30;;;1.20;;
14849;SDS011;7517;48.400;11.770;2023-02-01T14:26:06;2.87;;;1.40;;
14849;SDS011;7517;48.400;11.770;2023-02-01T14:28:45;2.60;;;1.10;;
14849;SDS011;7517;48.400;11.770;2023-02-01T14:31:32;1.87;;;1.20;;
14849;SDS011;7517;48.400;11.770;2023-02-01T14:34:31;2.67;;;1.50;;
14849;SDS011;7517;48.400;11.770;2023-02-01T14:37:10;1.83;;;1.03;;
14849;SDS011;7517;48.400;11.770;2023-02-01T14:39:54;2.33;;;1.20;;
14849;SDS011;7517;48.400;11.770;2023-02-01T14:42:28;2.33;;;1.30;;
14849;SDS011;7517;48.400;11.770;2023-02-01T14:51:13;2.43;;;1.20;;
14849;SDS011;7517;48.400;11.770;2023-02-01T14:53:43;1.40;;;1.30;;
14849;SDS011;7517;48.400;11.770;2023-02-01T14:56:15;2.27;;;1.53;;
14849;SDS011;7517;48.400;11.770;2023-02-01T14:58:48;1.23;;;1.13;;
14849;SDS011;7517;48.400;11.770;2023-02-01T15:01:25;2.30;;;1.30;;
14849;SDS011;7517;48.400;11.770;2023-02-01T15:03:55;1.27;;;0.93;;
14849;SDS011;7517;48.400;11.770;2023-02-01T15:06:31;2.53;;;1.20;;
14849;SDS011;7517;48.400;11.770;2023-02-01T15:09:04;2.00;;;1.27;;
14849;SDS011;7517;48.400;11.770;2023-02-01T15:11:58;2.43;;;1.20;;
14849;SDS011;7517;48.400;11.770;2023-02-01T15:14:29;2.03;;;1.10;;
14849;SDS011;7517;48.400;11.770;2023-02-01T15:16:58;2.50;;;1.20;;
14849;SDS011;7517;48.400;11.770;2023-02-01T15:19:27;1.87;;;1.10;;
14849;SDS011;7517;48.400;11.770;2023-02-01T15:21:57;2.47;;;1.17;;
14849;SDS011;7517;48.400;11.770;2023-02-01T15:24:27;1.17;;;1.07;;
14849;SDS011;7517;48.400;11.770;2023-02-01T15:27:03;2.13;;;1.50;;
14849;SDS011;7517;48.400;11.770;2023-02-01T15:29:32;1.77;;;1.47;;
14849;SDS011;7517;48.400;11.770;2023-02-01T15:31:59;2.83;;;1.10;;
14849;SDS011;7517;48.400;11.770;2023-02-01T15:37:14;3.53;;;1.63;;
14849;SDS011;7517;48.400;11.770;2023-02-01T15:42:51;1.37;;;1.03;;
14849;SDS011;7517;48.400;11.770;2023-02-01T15:45:21;1.90;;;0.87;;
14849;SDS011;7517;48.400;11.770;2023-02-01T15:47:54;2.03;;;0.90;;
14849;SDS011;7517;48.400;11.770;2023-02-01T15:50:24;2.50;;;0.90;;
14849;SDS011;7517;48.400;11.770;2023-02-01T15:52:55;1.13;;;0.80;;
14849;SDS011;7517;48.400;11.770;2023-02-01T15:55:23;1.20;;;0.87;;
14849;SDS011;7517;48.400;11.770;2023-02-01T15:58:06;2.90;;;1.00;;
14849;SDS011;7517;48.400;11.770;2023-02-01T16:00:40;2.47;;;0.90;;
14849;SDS011;7517;48.400;11.770;2023-02-01T16:06:05;2.17;;;1.10;;
14849;SDS011;7517;48.400;11.770;2023-02-01T16:08:35;1.47;;;1.00;;
14849;SDS011;7517;48.400;11.770;2023-02-01T16:13:58;2.53;;;1.00;;
14849;SDS011;7517;48.400;11.770;2023-02-01T16:16:27;4.80;;;0.90;;
14849;SDS011;7517;48.400;11.770;2023-02-01T16:18:56;2.03;;;1.03;;
14849;SDS011;7517;48.400;11.770;2023-02-01T16:21:23;1.70;;;0.87;;
14849;SDS011;7517;48.400;11.770;2023-02-01T16:23:50;4.13;;;1.40;;